Time;durP1;ratioP1;P1;durP2;ratioP2;P2;SDS_P1;SDS_P2;PMS_P1;PMS_P2;Temp;Humidity;BMP_temperature;BMP_pressure;BME280_temperature;BME280_humidity;BME280_pressure;Samples;Min_cycle;Max_cycle;Signal;HPM_P1;HPM_P2
2024/01/17 00:00:37;;;;;;;19.85;12.35;;;;;;;-3.26;100.00;99984.75;7394338;19;20015;-67
2024/01/17 00:03:06;;;;;;;26.55;12.68;;;;;;;-3.29;100.00;99990.66;7394889;19;20018;-68
2024/01/17 00:05:35;;;;;;;21.35;12.15;;;;;;;-3.31;100.00;99989.78;7395382;19;20018;-67
2024/01/17 00:08:04;;;;;;;20.65;12.68;;;;;;;-3.32;100.00;99990.59;7394991;19;20010;-67
2024/01/17 00:10:32;;;;;;;18.13;12.02;;;;;;;-3.34;100.00;99982.00;7392291;19;20086;-68
2024/01/17 00:13:01;;;;;;;16.85;11.30;;;;;;;-3.37;100.00;99987.06;7394656;19;20011;-67
2024/01/17 00:15:32;;;;;;;16.60;11.50;;;;;;;-3.38;100.00;99987.88;7393345;19;20032;-68
2024/01/17 00:18:00;;;;;;;20.30;13.18;;;;;;;-3.39;100.00;99982.72;7394302;19;20017;-67
2024/01/17 00:20:29;;;;;;;15.32;11.38;;;;;;;-3.46;100.00;99979.16;7394635;19;20019;-68
2024/01/17 00:22:57;;;;;;;20.58;12.30;;;;;;;-3.44;100.00;99982.63;7394152;19;20082;-67
2024/01/17 00:25:25;;;;;;;22.45;12.40;;;;;;;-3.48;100.00;99973.97;7394900;19;20102;-67
2024/01/17 00:27:54;;;;;;;18.75;11.48;;;;;;;-3.50;100.00;99965.41;7394533;19;20485;-68
2024/01/17 00:30:22;;;;;;;23.08;13.20;;;;;;;-3.52;100.00;99969.63;7392611;19;20024;-67
2024/01/17 00:32:54;;;;;;;23.17;13.40;;;;;;;-3.54;100.00;99965.28;7393898;19;20014;-67
2024/01/17 00:35:22;;;;;;;15.93;11.68;;;;;;;-3.55;100.00;99960.97;7393258;19;20394;-67
2024/01/17 00:37:50;;;;;;;20.35;12.95;;;;;;;-3.57;100.00;99971.22;7394599;19;20020;-67
2024/01/17 00:40:27;;;;;;;19.92;12.15;;;;;;;-3.59;100.00;99965.19;7393627;19;20011;-68
2024/01/17 00:42:56;;;;;;;20.42;13.32;;;;;;;-3.62;100.00;99968.53;7394300;19;20015;-68
2024/01/17 00:45:24;;;;;;;19.67;12.07;;;;;;;-3.65;100.00;99968.47;7394383;19;20014;-68
2024/01/17 00:47:55;;;;;;;18.75;11.68;;;;;;;-3.65;100.00;99963.34;7393923;19;20510;-68
2024/01/17 00:50:24;;;;;;;19.85;11.25;;;;;;;-3.66;100.00;99953.06;7394547;19;20019;-68
2024/01/17 00:52:53;;;;;;;19.80;11.75;;;;;;;-3.68;100.00;99947.03;7394017;19;20078;-69
2024/01/17 00:55:21;;;;;;;21.48;12.98;;;;;;;-3.70;100.00;99941.88;7392350;19;20062;-69
2024/01/17 00:57:50;;;;;;;22.95;12.35;;;;;;;-3.73;100.00;99946.06;7391621;19;20024;-69
2024/01/17 01:00:18;;;;;;;19.67;11.48;;;;;;;-3.76;100.00;99937.44;7393883;19;20019;-66
2024/01/17 01:02:48;;;;;;;19.88;12.98;;;;;;;-3.76;100.00;99937.44;7393480;19;20027;-67
2024/01/17 01:05:19;;;;;;;17.92;11.50;;;;;;;-3.76;100.00;99940.00;7394125;19;20015;-66
2024/01/17 01:07:47;;;;;;;22.98;11.90;;;;;;;-3.77;100.00;99935.75;7394156;19;20019;-66
2024/01/17 01:10:16;;;;;;;23.65;13.40;;;;;;;-3.78;100.00;99934.00;7391242;19;20450;-66
2024/01/17 01:12:44;;;;;;;20.88;11.90;;;;;;;-3.78;100.00;99934.00;7393342;19;20092;-66
2024/01/17 01:15:13;;;;;;;23.65;12.77;;;;;;;-3.80;100.00;99927.97;7391441;19;20438;-66
2024/01/17 01:17:41;;;;;;;17.13;11.40;;;;;;;-3.81;100.00;99925.38;7391116;19;20066;-67
2024/01/17 01:20:11;;;;;;;20.38;11.82;;;;;;;-3.82;100.00;99926.19;7393091;19;20561;-69
2024/01/17 01:22:43;;;;;;;18.05;11.70;;;;;;;-3.83;100.00;99925.34;7398652;19;20070;-70
2024/01/17 01:25:11;;;;;;;18.42;12.13;;;;;;;-3.84;100.00;99927.84;7401022;19;20028;-67
2024/01/17 01:27:40;;;;;;;23.83;13.30;;;;;;;-3.85;100.00;99928.69;7400576;19;20452;-67
2024/01/17 01:30:10;;;;;;;21.33;11.57;;;;;;;-3.86;100.00;99919.28;7400196;19;20388;-67
2024/01/17 01:32:38;;;;;;;19.38;12.95;;;;;;;-3.87;100.00;99923.50;7400139;19;20027;-67
2024/01/17 01:35:07;;;;;;;18.67;11.57;;;;;;;-3.88;100.00;99920.91;7397277;19;20023;-67
2024/01/17 01:37:36;;;;;;;16.65;11.82;;;;;;;-3.88;100.00;99924.38;7399908;19;20481;-67
2024/01/17 01:40:09;;;;;;;20.23;12.02;;;;;;;-3.87;100.00;99922.66;7400106;19;20082;-66
2024/01/17 01:42:38;;;;;;;21.55;13.07;;;;;;;-3.88;100.00;99919.25;7397384;19;20495;-67
2024/01/17 01:45:08;;;;;;;20.75;12.30;;;;;;;-3.89;100.00;99917.50;7399638;19;20007;-67
2024/01/17 01:47:37;;;;;;;20.60;12.93;;;;;;;-3.90;100.00;99922.56;7399911;19;20078;-66
2024/01/17 01:50:06;;;;;;;24.90;13.32;;;;;;;-3.91;100.00;99918.31;7399696;19;20014;-66
2024/01/17 01:52:36;;;;;;;20.67;13.77;;;;;;;-3.93;100.00;99914.00;7397297;19;20017;-66
2024/01/17 01:55:09;;;;;;;18.88;12.35;;;;;;;-3.94;100.00;99908.84;7397789;19;20512;-67
2024/01/17 01:57:39;;;;;;;20.15;13.05;;;;;;;-3.96;100.00;99907.94;7399348;19;20477;-66
2024/01/17 02:00:11;;;;;;;21.08;13.15;;;;;;;-3.97;100.00;99895.94;7400000;19;20010;-66
2024/01/17 02:02:40;;;;;;;21.30;12.13;;;;;;;-3.98;100.00;99891.63;7399563;19;20029;-67
2024/01/17 02:05:09;;;;;;;19.83;12.32;;;;;;;-4.00;100.00;99889.06;7397798;19;20035;-67
2024/01/17 02:07:39;;;;;;;20.85;12.75;;;;;;;-4.01;100.00;99891.59;7397291;19;20019;-66
2024/01/17 02:10:11;;;;;;;20.10;12.77;;;;;;;-4.01;100.00;99883.91;7399216;19;20069;-68
2024/01/17 02:12:40;;;;;;;19.48;12.77;;;;;;;-4.04;100.00;99876.13;7397993;19;20071;-66
2024/01/17 02:15:09;;;;;;;20.88;13.25;;;;;;;-4.06;100.00;99870.13;7397803;19;20074;-66
2024/01/17 02:17:37;;;;;;;21.15;12.63;;;;;;;-4.12;100.00;99869.16;7398656;19;20007;-67
2024/01/17 02:20:07;;;;;;;23.90;12.48;;;;;;;-4.15;100.00;99870.75;7398904;19;20097;-66
2024/01/17 02:22:35;;;;;;;22.23;14.02;;;;;;;-4.15;100.00;99868.19;7398194;19;20015;-67
2024/01/17 02:25:08;;;;;;;25.48;13.98;;;;;;;-4.17;100.00;99863.03;7396626;19;20022;-67
2024/01/17 02:27:38;;;;;;;20.35;12.15;;;;;;;-4.19;100.00;99858.72;7396934;19;20073;-67
2024/01/17 02:30:08;;;;;;;20.90;11.75;;;;;;;-4.21;100.00;99861.22;7398565;19;20017;-66
2024/01/17 02:32:37;;;;;;;19.67;13.63;;;;;;;-4.23;100.00;99868.03;7397121;19;20363;-66
2024/01/17 02:35:07;;;;;;;19.42;12.77;;;;;;;-4.26;100.00;99866.25;7396239;19;20541;-67
2024/01/17 02:37:42;;;;;;;22.10;12.15;;;;;;;-4.29;100.00;99855.91;7398421;19;20015;-67
2024/01/17 02:40:13;;;;;;;20.23;13.38;;;;;;;-4.32;100.00;99852.41;7398477;19;20014;-66
2024/01/17 02:42:42;;;;;;;19.30;11.88;;;;;;;-4.36;100.00;99848.06;7396313;19;20074;-67
2024/01/17 02:45:11;;;;;;;28.00;13.38;;;;;;;-4.40;100.00;99844.53;7399546;19;20382;-67
2024/01/17 02:47:39;;;;;;;21.50;13.50;;;;;;;-4.45;100.00;99836.78;7398339;19;20032;-67
2024/01/17 02:50:11;;;;;;;22.45;12.55;;;;;;;-4.47;100.00;99843.53;7397662;19;20074;-66
2024/01/17 02:52:39;;;;;;;24.45;14.70;;;;;;;-4.51;100.00;99841.75;7398049;19;20011;-67
2024/01/17 02:55:10;;;;;;;19.83;13.82;;;;;;;-4.53;100.00;99832.28;7396345;19;20070;-67
2024/01/17 02:57:42;;;;;;;23.13;13.88;;;;;;;-4.56;100.00;99822.84;7396323;19;20066;-67
2024/01/17 03:00:11;;;;;;;22.70;13.15;;;;;;;-4.58;100.00;99827.03;7397920;19;20037;-66
2024/01/17 03:02:40;;;;;;;25.58;14.02;;;;;;;-4.61;100.00;99819.31;7397216;19;20019;-67
2024/01/17 03:05:10;;;;;;;24.63;13.57;;;;;;;-4.62;100.00;99812.44;7397337;19;20007;-67
2024/01/17 03:07:38;;;;;;;24.13;13.63;;;;;;;-4.64;100.00;99811.53;7395143;19;20478;-66
2024/01/17 03:10:09;;;;;;;23.88;13.73;;;;;;;-4.66;100.00;99808.94;7397172;19;20028;-66
2024/01/17 03:12:37;;;;;;;23.15;14.32;;;;;;;-4.69;100.00;99803.72;7397255;19;20141;-67
2024/01/17 03:15:10;;;;;;;23.30;14.40;;;;;;;-4.71;100.00;99797.72;7396285;19;20070;-66
2024/01/17 03:17:38;;;;;;;22.15;13.02;;;;;;;-4.76;100.00;99787.34;7396492;19;20477;-66
2024/01/17 03:20:10;;;;;;;23.88;13.73;;;;;;;-4.80;100.00;99787.22;7398610;19;20023;-67
2024/01/17 03:22:39;;;;;;;23.65;13.05;;;;;;;-4.83;100.00;99790.59;7398191;19;20154;-67
2024/01/17 03:25:09;;;;;;;22.20;13.48;;;;;;;-4.84;100.00;99788.00;7397987;19;20066;-66
2024/01/17 03:27:38;;;;;;;20.48;12.50;;;;;;;-4.87;100.00;99781.09;7396743;19;20358;-66
2024/01/17 03:30:10;;;;;;;23.08;13.50;;;;;;;-4.90;100.00;99763.13;7396457;19;20078;-66
2024/01/17 03:32:39;;;;;;;24.95;14.48;;;;;;;-4.92;100.00;99759.66;7395423;19;20496;-67
2024/01/17 03:35:08;;;;;;;25.00;14.55;;;;;;;-4.97;100.00;99751.84;7395568;19;20082;-66
2024/01/17 03:37:36;;;;;;;21.42;13.85;;;;;;;-4.99;100.00;99753.53;7396128;19;20018;-67
2024/01/17 03:40:05;;;;;;;24.10;13.30;;;;;;;-5.01;100.00;99749.22;7395752;19;20434;-66
2024/01/17 03:42:34;;;;;;;26.33;14.68;;;;;;;-5.02;100.00;99745.75;7394172;19;20468;-67
2024/01/17 03:45:02;;;;;;;26.95;15.07;;;;;;;-5.03;100.00;99749.19;7395515;19;20082;-67
2024/01/17 03:47:34;;;;;;;27.77;14.65;;;;;;;-5.04;100.00;99739.75;7396053;19;20045;-67
2024/01/17 03:50:02;;;;;;;25.63;14.23;;;;;;;-5.05;100.00;99729.47;7394840;19;20018;-66
2024/01/17 03:52:31;;;;;;;23.98;14.43;;;;;;;-5.07;100.00;99725.19;7395788;19;20010;-67
2024/01/17 03:55:00;;;;;;;27.15;14.82;;;;;;;-5.08;100.00;99731.16;7395142;19;20022;-67
2024/01/17 03:57:28;;;;;;;24.88;15.38;;;;;;;-5.07;100.00;99726.88;7395398;19;20548;-67
2024/01/17 03:59:57;;;;;;;25.88;15.13;;;;;;;-5.07;100.00;99722.66;7395667;19;20082;-67
2024/01/17 04:02:25;;;;;;;24.55;13.98;;;;;;;-5.05;100.00;99724.34;7395565;19;20066;-67
2024/01/17 04:04:57;;;;;;;26.17;14.43;;;;;;;-5.04;100.00;99726.97;7394826;19;20526;-66
2024/01/17 04:07:25;;;;;;;22.63;13.35;;;;;;;-5.03;100.00;99720.16;7395312;19;20359;-66
2024/01/17 04:09:54;;;;;;;26.20;14.02;;;;;;;-5.01;100.00;99718.50;7395011;19;20024;-67
2024/01/17 04:12:23;;;;;;;22.35;13.23;;;;;;;-4.99;100.00;99721.94;7394610;19;20477;-66
2024/01/17 04:14:51;;;;;;;24.60;13.65;;;;;;;-4.98;100.00;99718.56;7394582;19;20027;-66
2024/01/17 04:17:20;;;;;;;26.98;13.70;;;;;;;-4.96;100.00;99709.25;7393204;19;20006;-66
2024/01/17 04:19:48;;;;;;;24.98;13.68;;;;;;;-4.95;100.00;99705.88;7393415;19;20074;-66
2024/01/17 04:22:19;;;;;;;25.58;13.75;;;;;;;-4.95;100.00;99701.59;7394687;19;20011;-67
2024/01/17 04:24:48;;;;;;;23.02;13.88;;;;;;;-4.94;100.00;99700.78;7392757;19;20079;-67
2024/01/17 04:27:16;;;;;;;23.25;13.45;;;;;;;-4.94;100.00;99697.34;7394653;19;20006;-66
2024/01/17 04:29:45;;;;;;;21.33;12.90;;;;;;;-4.93;100.00;99694.84;7394208;19;20014;-66
2024/01/17 04:32:14;;;;;;;21.75;13.38;;;;;;;-4.92;100.00;99698.25;7394552;19;20019;-66
2024/01/17 04:34:43;;;;;;;24.55;13.15;;;;;;;-4.92;100.00;99691.44;7392635;19;20018;-67
2024/01/17 04:37:11;;;;;;;21.35;13.05;;;;;;;-4.89;100.00;99682.09;7394776;19;20074;-67
2024/01/17 04:39:42;;;;;;;20.35;12.60;;;;;;;-4.89;100.00;99680.44;7392803;19;20087;-65
2024/01/17 04:42:12;;;;;;;23.35;12.45;;;;;;;-4.89;100.00;99670.19;7392543;19;20073;-66
2024/01/17 04:44:40;;;;;;;26.95;11.65;;;;;;;-4.89;100.00;99671.88;7391352;19;20018;-66
2024/01/17 04:47:09;;;;;;;51.67;23.08;;;;;;;-4.94;100.00;99651.28;7394153;19;20086;-67
2024/01/17 04:49:37;;;;;;;25.10;14.13;;;;;;;-4.95;100.00;99647.88;7392355;19;20015;-66
2024/01/17 04:52:07;;;;;;;20.30;11.38;;;;;;;-4.96;100.00;99651.25;7394297;19;20083;-67
2024/01/17 04:54:37;;;;;;;23.55;11.82;;;;;;;-4.98;100.00;99644.38;7391799;19;20010;-66
2024/01/17 04:57:08;;;;;;;20.85;14.85;;;;;;;-4.99;100.00;99646.09;7395354;19;20035;-67
2024/01/17 04:59:37;;;;;;;20.20;11.43;;;;;;;-5.00;100.00;99638.38;7401779;19;20074;-66
2024/01/17 05:02:06;;;;;;;23.33;11.93;;;;;;;-4.99;100.00;99637.53;7401283;19;20070;-66
2024/01/17 05:04:34;;;;;;;18.95;11.02;;;;;;;-5.01;100.00;99631.53;7398337;19;20006;-67
2024/01/17 05:07:03;;;;;;;19.48;10.63;;;;;;;-5.01;100.00;99629.81;7401071;19;20078;-66
2024/01/17 05:09:32;;;;;;;23.00;11.45;;;;;;;-4.99;100.00;99624.75;7398557;19;20023;-66
2024/01/17 05:12:00;;;;;;;22.52;10.55;;;;;;;-4.97;100.00;99623.09;7400675;19;20485;-67
2024/01/17 05:14:31;;;;;;;19.70;10.80;;;;;;;-4.96;100.00;99632.50;7398488;19;20085;-67
2024/01/17 05:17:01;;;;;;;16.20;9.18;;;;;;;-4.97;100.00;99623.94;7398692;19;20022;-67
2024/01/17 05:19:30;;;;;;;16.48;11.05;;;;;;;-4.94;100.00;99618.03;7400257;19;20512;-66
2024/01/17 05:22:04;;;;;;;18.73;10.48;;;;;;;-4.91;100.00;99626.66;7400272;19;20015;-66
2024/01/17 05:24:33;;;;;;;15.20;10.57;;;;;;;-4.89;100.00;99615.59;7398211;19;20066;-66
2024/01/17 05:27:01;;;;;;;16.55;10.95;;;;;;;-4.89;100.00;99611.34;7400070;19;20481;-66
2024/01/17 05:29:37;;;;;;;16.02;8.98;;;;;;;-4.88;100.00;99599.41;7399896;19;20010;-66
2024/01/17 05:32:05;;;;;;;17.40;9.82;;;;;;;-4.88;100.00;99597.69;7399908;19;20017;-66
2024/01/17 05:34:34;;;;;;;21.25;9.75;;;;;;;-4.88;100.00;99589.19;7397498;19;20018;-66
2024/01/17 05:37:03;;;;;;;28.17;14.50;;;;;;;-4.87;100.00;99593.47;7397682;19;20019;-67
2024/01/17 05:39:31;;;;;;;21.80;13.27;;;;;;;-4.88;100.00;99595.16;7399874;19;20021;-66
2024/01/17 05:42:00;;;;;;;26.52;15.18;;;;;;;-4.88;100.00;99595.16;7396797;19;20102;-66
2024/01/17 05:44:28;;;;;;;22.58;12.38;;;;;;;-4.88;100.00;99584.06;7397619;19;20484;-66
2024/01/17 05:46:59;;;;;;;25.48;12.63;;;;;;;-4.88;100.00;99581.50;7399949;19;20031;-66
2024/01/17 05:49:28;;;;;;;19.58;12.30;;;;;;;-4.88;100.00;99579.78;7397054;19;20023;-66
2024/01/17 05:51:56;;;;;;;17.83;12.18;;;;;;;-4.89;100.00;99578.09;7400647;19;20011;-67
2024/01/17 05:54:24;;;;;;;20.70;11.52;;;;;;;-4.90;100.00;99576.34;7397744;19;20027;-67
2024/01/17 05:56:54;;;;;;;19.38;10.75;;;;;;;-4.90;100.00;99578.91;7396835;19;20540;-66
2024/01/17 05:59:22;;;;;;;18.10;11.40;;;;;;;-4.91;100.00;99564.38;7397408;19;20028;-67
2024/01/17 06:01:50;;;;;;;20.77;11.48;;;;;;;-4.91;100.00;99575.47;7395491;19;20081;-67
2024/01/17 06:04:22;;;;;;;21.40;9.65;;;;;;;-4.92;100.00;99568.63;7396158;19;20086;-67
2024/01/17 06:06:50;;;;;;;16.75;10.07;;;;;;;-4.93;100.00;99566.91;7395772;19;20083;-67
2024/01/17 06:09:18;;;;;;;14.55;10.02;;;;;;;-4.94;100.00;99567.75;7398118;19;20023;-67
2024/01/17 06:11:47;;;;;;;17.92;9.95;;;;;;;-4.93;100.00;99556.69;7398451;19;20086;-67
2024/01/17 06:14:15;;;;;;;19.33;9.93;;;;;;;-4.92;100.00;99549.88;7397649;19;20086;-67
2024/01/17 06:16:44;;;;;;;16.35;9.95;;;;;;;-4.93;100.00;99538.78;7396923;19;20034;-67
2024/01/17 06:19:15;;;;;;;26.88;12.88;;;;;;;-4.92;100.00;99531.97;7395956;19;20006;-68
2024/01/17 06:21:46;;;;;;;23.77;13.15;;;;;;;-4.93;100.00;99522.53;7398115;19;20014;-67
2024/01/17 06:24:14;;;;;;;20.85;12.35;;;;;;;-4.92;100.00;99514.03;7394947;19;20347;-67
2024/01/17 06:26:43;;;;;;;24.05;10.70;;;;;;;-4.92;100.00;99502.09;7398646;19;20011;-66
2024/01/17 06:29:11;;;;;;;16.45;9.93;;;;;;;-4.92;100.00;99494.44;7396568;19;20018;-67
2024/01/17 06:31:40;;;;;;;15.98;9.02;;;;;;;-4.91;100.00;99488.47;7394884;19;20014;-67
2024/01/17 06:34:08;;;;;;;14.90;9.07;;;;;;;-4.92;100.00;99491.03;7396097;19;20010;-67
2024/01/17 06:36:37;;;;;;;15.18;9.02;;;;;;;-4.94;100.00;99483.31;7395953;19;20069;-67
2024/01/17 06:39:09;;;;;;;15.68;10.13;;;;;;;-4.95;100.00;99480.75;7395896;19;20091;-67
2024/01/17 06:41:50;;;;;;;15.85;9.40;;;;;;;-4.97;100.00;99478.13;7395889;19;20018;-67
2024/01/17 06:44:19;;;;;;;16.92;9.23;;;;;;;-4.99;100.00;99484.91;7395169;19;20033;-67
2024/01/17 06:46:47;;;;;;;13.75;9.15;;;;;;;-5.00;100.00;99487.44;7397037;19;20023;-67
2024/01/17 06:49:16;;;;;;;15.18;10.13;;;;;;;-5.03;100.00;99480.59;7397590;19;20078;-67
2024/01/17 06:51:45;;;;;;;17.67;10.00;;;;;;;-5.03;100.00;99485.69;7397083;19;20537;-67
2024/01/17 06:54:17;;;;;;;14.32;8.50;;;;;;;-5.04;100.00;99470.28;7395190;19;20014;-67
2024/01/17 06:56:45;;;;;;;15.80;8.90;;;;;;;-5.05;100.00;99478.78;7395864;19;20031;-67
2024/01/17 06:59:14;;;;;;;17.58;9.15;;;;;;;-5.08;100.00;99472.81;7395150;19;20537;-67
2024/01/17 07:01:42;;;;;;;12.88;8.77;;;;;;;-5.10;100.00;99463.38;7397004;19;20031;-67
2024/01/17 07:04:11;;;;;;;17.13;9.07;;;;;;;-5.14;100.00;99459.88;7395509;19;20019;-67
2024/01/17 07:06:39;;;;;;;16.52;10.68;;;;;;;-5.16;100.00;99465.78;7395675;19;20018;-67
2024/01/17 07:09:10;;;;;;;18.42;12.13;;;;;;;-5.19;100.00;99461.47;7394870;19;20074;-66
2024/01/17 07:11:41;;;;;;;15.75;10.68;;;;;;;-5.22;100.00;99451.16;7396571;19;20018;-67
2024/01/17 07:14:10;;;;;;;15.38;10.27;;;;;;;-5.24;100.00;99452.84;7395081;19;20481;-66
2024/01/17 07:16:38;;;;;;;17.27;10.63;;;;;;;-5.27;100.00;99445.09;7394739;19;20019;-67
2024/01/17 07:19:07;;;;;;;16.98;10.25;;;;;;;-5.29;100.00;99436.56;7393043;19;20015;-66
2024/01/17 07:21:37;;;;;;;14.40;10.07;;;;;;;-5.31;100.00;99433.09;7395019;19;20090;-66
2024/01/17 07:24:05;;;;;;;15.45;9.98;;;;;;;-5.32;100.00;99437.34;7394627;19;20014;-67
2024/01/17 07:26:34;;;;;;;18.48;10.43;;;;;;;-5.32;100.00;99422.00;7396068;19;20083;-67
2024/01/17 07:29:05;;;;;;;16.40;9.13;;;;;;;-5.31;100.00;99425.41;7395965;19;20014;-66
2024/01/17 07:31:34;;;;;;;16.77;10.45;;;;;;;-5.31;100.00;99410.94;7396396;19;20010;-66
2024/01/17 07:34:02;;;;;;;16.45;10.63;;;;;;;-5.30;100.00;99415.22;7394233;19;20082;-66
2024/01/17 07:36:30;;;;;;;15.45;9.73;;;;;;;-5.30;100.00;99410.09;7394549;19;20019;-66
2024/01/17 07:38:59;;;;;;;16.88;10.20;;;;;;;-5.29;100.00;99400.75;7395407;19;20077;-66
2024/01/17 07:41:29;;;;;;;15.30;9.82;;;;;;;-5.34;100.00;99374.22;7394383;19;20418;-67
2024/01/17 07:43:57;;;;;;;14.07;9.70;;;;;;;-5.30;100.00;99376.00;7392959;19;20465;-66
2024/01/17 07:46:28;;;;;;;16.25;10.35;;;;;;;-5.30;100.00;99369.19;7392946;19;20024;-66
2024/01/17 07:48:57;;;;;;;14.40;10.05;;;;;;;-5.29;100.00;99370.06;7393313;19;20006;-66
2024/01/17 07:51:26;;;;;;;13.85;9.98;;;;;;;-5.27;100.00;99366.72;7394550;19;20034;-67
2024/01/17 07:53:54;;;;;;;111.07;51.22;;;;;;;-5.26;100.00;99358.22;7393903;19;20022;-67
2024/01/17 07:56:23;;;;;;;36.88;20.90;;;;;;;-5.24;100.00;99361.66;7394860;19;20086;-67
2024/01/17 07:58:58;;;;;;;21.70;14.15;;;;;;;-5.22;100.00;99346.31;7395206;19;20027;-67
2024/01/17 08:01:29;;;;;;;24.55;14.05;;;;;;;-5.20;100.00;99341.28;7394677;19;20011;-67
2024/01/17 08:03:57;;;;;;;20.45;11.95;;;;;;;-5.18;100.00;99335.34;7393718;19;20384;-67
2024/01/17 08:06:26;;;;;;;15.55;11.40;;;;;;;-5.16;100.00;99320.88;7394418;19;20074;-67
2024/01/17 08:08:55;;;;;;;15.95;9.60;;;;;;;-5.11;100.00;99326.09;7394920;19;20091;-68
2024/01/17 08:11:23;;;;;;;14.48;9.32;;;;;;;-5.07;100.00;99330.41;7394787;19;20031;-67
2024/01/17 08:13:51;;;;;;;12.30;8.23;;;;;;;-5.03;100.00;99321.13;7393478;19;20043;-67
2024/01/17 08:16:20;;;;;;;16.52;10.15;;;;;;;-4.98;100.00;99319.50;7394206;19;20074;-67
2024/01/17 08:18:52;;;;;;;13.73;9.02;;;;;;;-4.95;100.00;99315.31;7394771;19;20034;-67
2024/01/17 08:21:21;;;;;;;14.95;9.48;;;;;;;-4.91;100.00;99304.28;7393680;19;20035;-67
2024/01/17 08:23:49;;;;;;;14.93;8.85;;;;;;;-4.86;100.00;99299.25;7393559;19;20428;-67
2024/01/17 08:26:17;;;;;;;13.38;8.90;;;;;;;-4.80;100.00;99293.38;7394347;19;20070;-67
2024/01/17 08:28:46;;;;;;;17.45;10.13;;;;;;;-4.73;100.00;99291.78;7394600;19;20078;-67
2024/01/17 08:31:14;;;;;;;17.98;8.85;;;;;;;-4.69;100.00;99278.19;7395805;19;20011;-67
2024/01/17 08:33:43;;;;;;;16.95;8.65;;;;;;;-4.65;100.00;99274.84;7400257;19;20104;-67
2024/01/17 08:36:14;;;;;;;13.68;9.52;;;;;;;-4.62;100.00;99270.66;7401430;19;20014;-67
2024/01/17 08:38:43;;;;;;;14.73;9.05;;;;;;;-4.57;100.00;99268.16;7398364;19;20346;-67
2024/01/17 08:41:12;;;;;;;18.45;9.35;;;;;;;-4.54;100.00;99257.97;7401973;19;20494;-67
2024/01/17 08:43:41;;;;;;;15.75;9.20;;;;;;;-4.49;100.00;99252.91;7398835;19;20023;-67
2024/01/17 08:46:11;;;;;;;16.42;9.63;;;;;;;-4.45;100.00;99247.88;7401304;19;20398;-67
2024/01/17 08:48:40;;;;;;;15.32;9.02;;;;;;;-4.40;100.00;99247.94;7402102;19;20031;-67
2024/01/17 08:51:11;;;;;;;20.48;9.35;;;;;;;-4.34;100.00;99244.59;7401795;19;20078;-67
2024/01/17 08:53:42;;;;;;;17.17;8.30;;;;;;;-4.30;100.00;99247.22;7399690;19;20014;-67
2024/01/17 08:56:11;;;;;;;18.33;9.55;;;;;;;-4.22;100.00;99246.47;7398842;19;20028;-67
2024/01/17 08:58:39;;;;;;;17.45;10.15;;;;;;;-4.16;100.00;99242.28;7401108;19;20078;-67
2024/01/17 09:01:07;;;;;;;17.50;10.70;;;;;;;-4.09;100.00;99236.41;7401318;19;20014;-67
2024/01/17 09:03:36;;;;;;;18.10;10.70;;;;;;;-4.02;100.00;99232.25;7398896;19;20534;-67
2024/01/17 09:06:04;;;;;;;14.20;9.75;;;;;;;-3.95;100.00;99222.94;7398342;19;20078;-68
2024/01/17 09:08:33;;;;;;;14.65;9.45;;;;;;;-3.89;100.00;99224.69;7400625;19;20386;-66
2024/01/17 09:11:05;;;;;;;13.27;8.75;;;;;;;-3.84;100.00;99223.94;7398284;19;20031;-66
2024/01/17 09:13:34;;;;;;;13.80;9.48;;;;;;;-3.77;100.00;99218.03;7399553;19;20026;-67
2024/01/17 09:16:02;;;;;;;15.93;8.70;;;;;;;-3.70;100.00;99218.09;7400897;19;20018;-67
2024/01/17 09:18:31;;;;;;;16.95;8.98;;;;;;;-3.65;100.00;99217.31;7398750;19;20017;-66
2024/01/17 09:20:59;;;;;;;18.20;8.68;;;;;;;-3.58;100.00;99212.25;7400222;19;20010;-66
2024/01/17 09:23:28;;;;;;;18.27;10.13;;;;;;;-3.51;100.00;99209.75;7397650;19;20041;-67
2024/01/17 09:25:56;;;;;;;21.70;12.00;;;;;;;-3.42;100.00;99205.56;7397584;19;20023;-67
2024/01/17 09:28:27;;;;;;;19.55;10.93;;;;;;;-3.35;100.00;99204.78;7400334;19;20086;-67
2024/01/17 09:30:56;;;;;;;18.30;10.40;;;;;;;-3.27;100.00;99198.03;7400709;19;20078;-67
2024/01/17 09:33:25;;;;;;;16.85;9.75;;;;;;;-3.18;100.00;99203.25;7399065;19;20474;-67
2024/01/17 09:35:53;;;;;;;15.57;10.18;;;;;;;-3.06;100.00;99193.94;7399352;19;20516;-67
2024/01/17 09:38:22;;;;;;;14.60;9.45;;;;;;;-2.97;100.00;99191.44;7397504;19;20024;-67
2024/01/17 09:40:50;;;;;;;11.60;9.05;;;;;;;-2.87;100.00;99184.66;7397336;19;20015;-67
2024/01/17 09:43:25;;;;;;;17.15;9.98;;;;;;;-2.78;100.00;99177.91;7394885;19;20086;-67
2024/01/17 09:45:59;;;;;;;15.93;10.00;;;;;;;-2.67;100.00;99179.69;7399978;19;20010;-68
2024/01/17 09:48:28;;;;;;;17.50;10.43;;;;;;;-2.57;100.00;99172.91;7399458;19;20537;-67
2024/01/17 09:50:58;;;;;;;13.23;9.70;;;;;;;-2.51;100.00;99166.09;7396875;19;20014;-67
2024/01/17 09:53:32;;;;;;;15.80;10.05;;;;;;;-2.44;100.00;99159.28;7398126;19;20066;-67
2024/01/17 09:56:01;;;;;;;15.50;9.85;;;;;;;-2.42;100.00;99139.59;7399685;19;20085;-70
2024/01/17 09:58:33;;;;;;;13.70;8.93;;;;;;;-2.32;100.00;99137.94;7397170;19;20014;-67
2024/01/17 10:01:06;;;;;;;14.13;9.30;;;;;;;-2.31;100.00;99131.97;7398745;19;20007;-67
2024/01/17 10:03:37;;;;;;;14.48;8.95;;;;;;;-2.26;100.00;99129.38;7397613;19;20014;-69
2024/01/17 10:06:13;;;;;;;12.63;8.43;;;;;;;-2.26;100.00;99125.13;7399481;19;20011;-68
2024/01/17 10:08:42;;;;;;;17.70;10.73;;;;;;;-2.24;100.00;99122.56;7397295;19;20066;-67
2024/01/17 10:11:12;;;;;;;12.45;8.85;;;;;;;-2.23;100.00;99117.41;7398688;19;20526;-67
2024/01/17 10:13:40;;;;;;;16.08;9.30;;;;;;;-2.19;100.00;99108.88;7397546;19;20018;-66
2024/01/17 10:16:11;;;;;;;15.82;9.52;;;;;;;-2.17;100.00;99103.75;7398580;19;20010;-65
2024/01/17 10:18:40;;;;;;;15.98;9.80;;;;;;;-2.15;100.00;99092.63;7396895;19;20070;-67
2024/01/17 10:21:09;;;;;;;17.02;11.02;;;;;;;-2.11;100.00;99090.06;7398566;19;20027;-66
2024/01/17 10:23:40;;;;;;;15.52;10.25;;;;;;;-2.09;100.00;99080.66;7397113;19;20482;-66
2024/01/17 10:26:10;;;;;;;14.13;8.52;;;;;;;-2.05;100.00;99078.06;7396540;19;20130;-66
2024/01/17 10:28:39;;;;;;;15.20;10.50;;;;;;;-2.01;100.00;99069.53;7396342;19;20077;-66
2024/01/17 10:31:07;;;;;;;12.45;8.52;;;;;;;-1.98;100.00;99063.53;7398016;19;20423;-66
2024/01/17 10:33:39;;;;;;;16.38;10.27;;;;;;;-1.94;100.00;99054.13;7396730;19;20485;-66
2024/01/17 10:36:09;;;;;;;19.27;10.27;;;;;;;-1.93;100.00;99056.69;7396485;19;20015;-66
2024/01/17 10:38:37;;;;;;;15.13;9.73;;;;;;;-1.91;100.00;99041.25;7396238;19;20020;-65
2024/01/17 10:41:07;;;;;;;16.50;10.63;;;;;;;-1.92;100.00;99042.13;7397766;19;20020;-65
2024/01/17 10:43:53;;;;;;;17.30;10.23;;;;;;;-1.89;100.00;99032.69;7396008;19;20018;-65
2024/01/17 10:46:22;;;;;;;19.60;9.40;;;;;;;-1.87;100.00;99032.69;7398077;19;20074;-66
2024/01/17 10:48:53;;;;;;;16.63;9.75;;;;;;;-1.86;100.00;99027.56;7397274;19;20081;-66
2024/01/17 10:51:24;;;;;;;14.07;9.40;;;;;;;-1.83;100.00;99021.59;7398228;19;20037;-66
2024/01/17 10:53:55;;;;;;;15.75;10.05;;;;;;;-1.79;100.00;99018.16;7393482;19;20392;-65
2024/01/17 10:56:24;;;;;;;13.10;9.20;;;;;;;-1.77;100.00;99016.41;7399059;19;20412;-65
2024/01/17 10:58:54;;;;;;;14.57;9.77;;;;;;;-1.74;100.00;99005.31;7395350;19;20083;-65
2024/01/17 11:01:28;;;;;;;18.20;12.20;;;;;;;-1.72;100.00;99004.44;7397903;19;20030;-65
2024/01/17 11:04:05;;;;;;;19.40;9.93;;;;;;;-1.71;100.00;98987.28;7395521;19;20084;-65
2024/01/17 11:06:33;;;;;;;16.77;9.82;;;;;;;-1.66;100.00;98988.16;7395018;19;20778;-65
2024/01/17 11:09:06;;;;;;;17.23;9.25;;;;;;;-1.64;100.00;98971.00;7396907;19;20031;-65
2024/01/17 11:11:36;;;;;;;17.08;9.73;;;;;;;-1.60;100.00;98971.88;7396637;19;20011;-66
2024/01/17 11:14:06;;;;;;;14.95;9.55;;;;;;;-1.58;100.00;98971.00;7395519;19;20352;-66
2024/01/17 11:16:36;;;;;;;12.75;8.63;;;;;;;-1.55;100.00;98965.84;7396397;19;20086;-66
2024/01/17 11:19:09;;;;;;;18.73;9.63;;;;;;;-1.51;100.00;98961.56;7394800;19;20070;-64
2024/01/17 11:21:45;;;;;;;14.18;9.50;;;;;;;-1.47;100.00;98952.97;7396882;19;20066;-65